createdAt,value
2022-08-18T00:01:48.650Z,99968.75
2022-08-18T00:04:52.795Z,99967.91
2022-08-18T00:07:58.215Z,99962.53
2022-08-18T00:11:00.777Z,99949.25
2022-08-18T00:14:03.154Z,99944.25
2022-08-18T00:17:05.659Z,99952.75
2022-08-18T00:20:14.900Z,99939.69
2022-08-18T00:23:18.245Z,99938.63
2022-08-18T00:26:20.452Z,99936.16
2022-08-18T00:29:22.849Z,99938.03
2022-08-18T00:32:37.075Z,99936.16
2022-08-18T00:35:39.736Z,99930.28
2022-08-18T00:38:41.896Z,99935.50
2022-08-18T00:41:44.317Z,99942.97
2022-08-18T00:44:46.515Z,99951.72
2022-08-18T00:47:48.907Z,99953.84
2022-08-18T00:51:02.483Z,99951.34
2022-08-18T00:54:16.106Z,99959.00
2022-08-18T00:57:21.450Z,99951.75
2022-08-18T01:00:24.003Z,99955.06
2022-08-18T01:03:26.825Z,99959.81
2022-08-18T01:06:44.423Z,99959.19
2022-08-18T01:09:49.294Z,99954.66
2022-08-18T01:12:57.883Z,99952.12
2022-08-18T01:16:20.480Z,99960.69
2022-08-18T01:19:41.974Z,99972.97
2022-08-18T01:22:49.988Z,99970.63
2022-08-18T01:26:04.348Z,99963.97
2022-08-18T01:29:14.151Z,99969.56
2022-08-18T01:32:23.031Z,99972.25
2022-08-18T01:35:27.219Z,99969.16
2022-08-18T01:38:32.094Z,99966.25
2022-08-18T01:41:34.388Z,99972.44
2022-08-18T01:44:36.833Z,99973.88
2022-08-18T01:47:58.206Z,99981.16
2022-08-18T01:51:03.757Z,99981.38
2022-08-18T01:54:11.504Z,99982.84
2022-08-18T01:57:15.614Z,99979.69
2022-08-18T02:00:18.920Z,99984.47
2022-08-18T02:03:21.315Z,99977.19
2022-08-18T02:06:32.182Z,99981.31
2022-08-18T02:09:38.903Z,99983.38
2022-08-18T02:12:41.955Z,99972.00
2022-08-18T02:15:44.545Z,99979.28
2022-08-18T02:18:48.426Z,99982.19
2022-08-18T02:21:52.775Z,99977.63
2022-08-18T02:24:57.148Z,99970.94
2022-08-18T02:27:59.587Z,99970.31
2022-08-18T02:31:18.472Z,99967.41
2022-08-18T02:34:20.865Z,99986.72
2022-08-18T02:37:23.203Z,99989.44
2022-08-18T02:40:25.879Z,99985.69
2022-08-18T02:43:29.461Z,99983.00
2022-08-18T02:46:31.846Z,99987.75
2022-08-18T02:49:33.960Z,99988.41
2022-08-18T02:52:36.460Z,99993.34
2022-08-18T02:55:40.475Z,99988.19
2022-08-18T02:58:42.860Z,99996.06
2022-08-18T03:01:47.728Z,99994.37
2022-08-18T03:04:51.285Z,99996.59
2022-08-18T03:07:53.959Z,99999.69
2022-08-18T03:10:56.435Z,99999.28
2022-08-18T03:13:58.672Z,100008.22
2022-08-18T03:17:01.046Z,100007.91
2022-08-18T03:20:04.583Z,100012.59
2022-08-18T03:23:09.729Z,100008.75
2022-08-18T03:26:15.102Z,100013.91
2022-08-18T03:29:17.645Z,100024.19
2022-08-18T03:32:19.804Z,100022.72
2022-08-18T03:35:22.179Z,100031.78
2022-08-18T03:38:24.474Z,100032.19
2022-08-18T03:41:57.474Z,100027.63
2022-08-18T03:44:50.347Z,100029.72
2022-08-18T03:47:53.286Z,100018.09
2022-08-18T03:50:55.959Z,100020.59
2022-08-18T03:54:02.852Z,100017.38
2022-08-18T03:57:07.328Z,100017.13
2022-08-18T04:00:11.437Z,100015.09
2022-08-18T04:03:13.825Z,100025.81
2022-08-18T04:06:30.218Z,100014.97
2022-08-18T04:09:34.888Z,100011.88
2022-08-18T04:12:39.801Z,100015.41
2022-08-18T04:15:42.209Z,100025.22
2022-08-18T04:18:44.542Z,100029.59
2022-08-18T04:21:51.967Z,100020.84
2022-08-18T04:24:54.346Z,100024.81
2022-08-18T04:28:00.300Z,100018.78
2022-08-18T04:31:10.349Z,100024.00
2022-08-18T04:34:13.804Z,100020.66
2022-08-18T04:37:16.921Z,100023.69
2022-08-18T04:40:24.362Z,100029.34
2022-08-18T04:43:27.267Z,100030.37
2022-08-18T04:46:30.601Z,100026.19
2022-08-18T04:49:33.986Z,100023.84
2022-08-18T04:52:55.010Z,100029.69
2022-08-18T04:55:57.167Z,100029.72
2022-08-18T04:59:04.529Z,100028.75
2022-08-18T05:02:12.701Z,100031.72
2022-08-18T05:05:17.024Z,100031.47
2022-08-18T05:08:19.142Z,100030.78
2022-08-18T05:11:23.413Z,100021.72
2022-08-18T05:14:25.771Z,100023.25
2022-08-18T05:17:29.090Z,100021.00
2022-08-18T05:20:32.440Z,100020.91
2022-08-18T05:23:36.145Z,100020.75
2022-08-18T05:26:38.293Z,100027.06
2022-08-18T05:29:42.001Z,100030.16
2022-08-18T05:32:50.448Z,100025.69
2022-08-18T05:36:02.065Z,100028.41
2022-08-18T05:39:20.966Z,100037.75
2022-08-18T05:42:26.108Z,100027.84
2022-08-18T05:45:28.561Z,100029.63
2022-08-18T05:48:32.677Z,100031.62
2022-08-18T05:51:42.221Z,100026.25
2022-08-18T05:55:18.730Z,100044.13
2022-08-18T05:58:32.886Z,100041.56
2022-08-18T06:01:51.476Z,100040.09
2022-08-18T06:04:57.435Z,100034.81
2022-08-18T06:08:07.118Z,100035.06
2022-08-18T06:11:17.279Z,100048.69
2022-08-18T06:14:25.469Z,100049.94
2022-08-18T06:18:05.179Z,100044.63
2022-08-18T06:21:21.163Z,100053.78
2022-08-18T06:25:08.677Z,100051.22
2022-08-18T06:28:16.677Z,100064.53
2022-08-18T06:31:29.947Z,100058.31
2022-08-18T06:34:51.730Z,100054.47
2022-08-18T06:38:36.341Z,100053.56
2022-08-18T06:41:43.893Z,100045.31
2022-08-18T06:44:51.898Z,100051.28
2022-08-18T06:48:15.968Z,100049.50
2022-08-18T06:51:22.996Z,100047.63
2022-08-18T06:54:29.882Z,100043.56
2022-08-18T06:57:34.967Z,100036.06
2022-08-18T07:00:41.066Z,100041.22
2022-08-18T07:03:55.001Z,100033.94
2022-08-18T07:06:57.198Z,100028.03
2022-08-18T07:09:59.537Z,100031.72
2022-08-18T07:13:27.720Z,100025.91
2022-08-18T07:16:56.554Z,100021.78
2022-08-18T07:20:15.079Z,100026.28
2022-08-18T07:23:28.386Z,100016.59
2022-08-18T07:26:30.748Z,100017.94
2022-08-18T07:29:37.242Z,100010.44
2022-08-18T07:32:51.600Z,100019.78
2022-08-18T07:36:06.486Z,100015.69
2022-08-18T07:39:20.819Z,100021.06
2022-08-18T07:43:00.923Z,100013.78
2022-08-18T07:46:12.303Z,100015.56
2022-08-18T07:49:22.187Z,100013.66
2022-08-18T07:52:44.195Z,100016.87
2022-08-18T07:56:00.265Z,100011.25
2022-08-18T07:59:16.932Z,100019.28
2022-08-18T08:02:32.190Z,100026.66
2022-08-18T08:05:38.663Z,100024.81
2022-08-18T08:08:56.889Z,100041.22
2022-08-18T08:12:25.379Z,100046.38
2022-08-18T08:16:05.424Z,100051.69
2022-08-18T08:19:59.978Z,100048.62
2022-08-18T08:23:28.814Z,100054.56
2022-08-18T08:26:47.915Z,100060.38
2022-08-18T08:30:17.725Z,100058.47
2022-08-18T08:33:47.641Z,100053.56
2022-08-18T08:36:57.836Z,100047.59
2022-08-18T08:40:13.015Z,100046.69
2022-08-18T08:43:26.174Z,100047.88
2022-08-18T08:46:31.525Z,100044.41
2022-08-18T08:49:39.702Z,100035.94
2022-08-18T08:52:44.984Z,100042.81
2022-08-18T08:55:52.234Z,100029.03
2022-08-18T08:59:10.064Z,100033.37
2022-08-18T09:03:00.718Z,100028.06
2022-08-18T09:06:33.140Z,100035.75
2022-08-18T09:10:12.780Z,100022.31
2022-08-18T09:13:42.463Z,100021.22
2022-08-18T09:17:15.598Z,100022.09
2022-08-18T09:20:37.361Z,100015.84
2022-08-18T09:23:46.416Z,100005.34
2022-08-18T09:27:14.448Z,99997.22
2022-08-18T09:30:45.186Z,100005.66
2022-08-18T09:37:41.769Z,100004.50
2022-08-18T09:41:09.542Z,99998.44
2022-08-18T09:44:21.483Z,99993.50
2022-08-18T09:50:57.720Z,99992.78
2022-08-18T09:54:13.532Z,99987.38
2022-08-18T09:57:24.450Z,99975.22
2022-08-18T10:00:33.538Z,99971.25
2022-08-18T10:03:36.463Z,99955.91
2022-08-18T10:06:39.254Z,99950.75
2022-08-18T10:09:57.616Z,99941.06
2022-08-18T10:13:17.880Z,99945.34
2022-08-18T10:20:05.901Z,99943.34
2022-08-18T10:23:09.439Z,99941.38
2022-08-18T10:26:30.032Z,99936.84
2022-08-18T10:29:48.877Z,99942.81
2022-08-18T10:32:54.428Z,99934.31
2022-08-18T10:35:59.904Z,99936.00
2022-08-18T10:39:06.407Z,99946.25
2022-08-18T10:42:19.927Z,99942.13
2022-08-18T10:45:33.027Z,99938.38
2022-08-18T10:48:40.220Z,99937.25
2022-08-18T10:51:59.153Z,99928.41
2022-08-18T10:55:16.266Z,99920.84
2022-08-18T10:58:21.513Z,99918.53
2022-08-18T11:01:45.736Z,99912.75
2022-08-18T11:08:17.445Z,99921.50
2022-08-18T11:11:34.133Z,99920.56
2022-08-18T11:14:54.387Z,99915.53
2022-08-18T11:18:03.160Z,99915.00
2022-08-18T11:21:32.578Z,99905.88
2022-08-18T11:24:35.661Z,99907.47
2022-08-18T11:27:46.659Z,99889.84
2022-08-18T11:30:53.415Z,99895.84
2022-08-18T11:33:55.976Z,99889.13
2022-08-18T11:37:03.222Z,99881.28
2022-08-18T11:47:15.892Z,99867.34
2022-08-18T11:50:29.870Z,99857.84
2022-08-18T11:53:57.400Z,99859.09
2022-08-18T11:57:29.579Z,99848.16
2022-08-18T12:00:48.683Z,99846.47
2022-08-18T12:03:51.295Z,99843.63
2022-08-18T12:07:04.859Z,99837.12
2022-08-18T12:10:29.256Z,99830.25
2022-08-18T12:13:31.878Z,99829.44
2022-08-18T12:16:41.724Z,99832.59
2022-08-18T12:19:49.049Z,99815.53
2022-08-18T12:22:57.068Z,99818.84
2022-08-18T12:25:59.392Z,99814.06
2022-08-18T12:29:01.855Z,99801.59
2022-08-18T12:32:08.418Z,99796.97
2022-08-18T12:35:22.021Z,99798.44
2022-08-18T12:38:24.683Z,99790.28
2022-08-18T12:41:27.114Z,99782.13
2022-08-18T12:44:32.459Z,99795.69
2022-08-18T12:47:40.016Z,99790.69
2022-08-18T12:50:54.337Z,99790.97
2022-08-18T12:54:01.147Z,99802.94
2022-08-18T12:57:10.443Z,99806.16
2022-08-18T13:00:15.396Z,99804.50
2022-08-18T13:03:21.326Z,99811.16
2022-08-18T13:06:24.464Z,99813.50
2022-08-18T13:09:52.506Z,99820.66
2022-08-18T13:12:56.487Z,99823.19
2022-08-18T13:16:03.535Z,99825.63
2022-08-18T13:19:07.765Z,99827.31
2022-08-18T13:22:12.924Z,99819.91
2022-08-18T13:25:33.183Z,99812.22
2022-08-18T13:28:57.127Z,99819.09
2022-08-18T13:32:00.740Z,99820.00
2022-08-18T13:35:09.033Z,99823.22
2022-08-18T13:38:21.864Z,99826.31
2022-08-18T13:44:31.231Z,99800.06
2022-08-18T13:47:38.132Z,99814.41
2022-08-18T13:50:41.761Z,99801.81
2022-08-18T13:53:57.549Z,99809.41
2022-08-18T13:57:03.057Z,99817.28
2022-08-18T14:00:17.970Z,99814.44
2022-08-18T14:03:31.039Z,99810.81
2022-08-18T14:06:46.945Z,99810.63
2022-08-18T14:09:57.866Z,99807.16
2022-08-18T14:13:01.669Z,99817.87
2022-08-18T14:16:26.736Z,99827.72
2022-08-18T14:19:48.304Z,99819.25
2022-08-18T14:23:12.419Z,99822.94
2022-08-18T14:26:33.430Z,99821.31
2022-08-18T14:29:45.655Z,99820.13
2022-08-18T14:32:50.158Z,99819.47
2022-08-18T14:36:05.971Z,99829.34
2022-08-18T14:39:11.381Z,99821.34
2022-08-18T14:42:15.867Z,99830.00
2022-08-18T14:45:28.058Z,99831.53
2022-08-18T14:48:36.960Z,99823.19
2022-08-18T14:51:42.860Z,99834.06
2022-08-18T14:54:46.133Z,99829.00
2022-08-18T14:57:53.632Z,99827.97
2022-08-18T15:01:08.402Z,99819.38
2022-08-18T15:04:18.676Z,99820.00
2022-08-18T15:07:23.943Z,99815.50
2022-08-18T15:10:28.207Z,99806.31
2022-08-18T15:13:32.158Z,99800.06
2022-08-18T15:16:34.991Z,99803.06
2022-08-18T15:19:59.555Z,99801.09
2022-08-18T15:23:24.864Z,99809.69
2022-08-18T15:26:32.407Z,99805.41
2022-08-18T15:29:36.768Z,99797.91
2022-08-18T15:32:45.657Z,99809.94
2022-08-18T15:35:50.486Z,99811.09
2022-08-18T15:38:53.637Z,99806.22
2022-08-18T15:41:58.044Z,99817.09
2022-08-18T15:45:11.500Z,99821.09
2022-08-18T15:48:15.662Z,99822.84
2022-08-18T15:51:18.526Z,99822.47
2022-08-18T15:54:22.337Z,99816.84
2022-08-18T15:57:39.351Z,99815.63
2022-08-18T16:00:45.796Z,99803.81
2022-08-18T16:03:50.055Z,99802.19
2022-08-18T16:06:56.071Z,99796.44
2022-08-18T16:09:58.524Z,99790.00
2022-08-18T16:13:02.854Z,99794.47
2022-08-18T16:16:29.253Z,99797.34
2022-08-18T16:19:38.461Z,99800.50
2022-08-18T16:22:41.274Z,99794.81
2022-08-18T16:25:44.014Z,99799.47
2022-08-18T16:28:52.356Z,99801.69
2022-08-18T16:31:54.577Z,99796.56
2022-08-18T16:34:57.111Z,99805.41
2022-08-18T16:38:08.704Z,99801.63
2022-08-18T16:41:14.973Z,99793.94
2022-08-18T16:44:17.427Z,99793.41
2022-08-18T16:47:19.881Z,99801.44
2022-08-18T16:50:23.398Z,99794.63
2022-08-18T16:53:25.877Z,99789.47
2022-08-18T16:56:42.283Z,99796.09
2022-08-18T17:00:03.070Z,99790.91
2022-08-18T17:03:25.314Z,99785.44
2022-08-18T17:06:28.697Z,99778.84
2022-08-18T17:09:33.197Z,99780.75
2022-08-18T17:12:35.668Z,99763.16
2022-08-18T17:15:37.892Z,99765.88
2022-08-18T17:18:41.031Z,99760.59
2022-08-18T17:21:43.628Z,99754.50
2022-08-18T17:24:49.504Z,99759.88
2022-08-18T17:27:52.980Z,99753.84
2022-08-18T17:30:55.899Z,99752.34
2022-08-18T17:34:06.325Z,99743.78
2022-08-18T17:37:12.308Z,99741.50
2022-08-18T17:40:21.385Z,99734.63
2022-08-18T17:43:29.227Z,99714.69
2022-08-18T17:46:40.019Z,99703.56
2022-08-18T17:50:26.754Z,99710.19
2022-08-18T17:53:25.479Z,99718.50
2022-08-18T17:56:40.387Z,99717.44
2022-08-18T17:59:58.293Z,99725.69
2022-08-18T18:03:01.391Z,99737.50
2022-08-18T18:06:14.236Z,99749.41
2022-08-18T18:09:36.595Z,99754.28
2022-08-18T18:12:39.228Z,99748.72
2022-08-18T18:15:46.142Z,99749.81
2022-08-18T18:19:01.371Z,99758.09
2022-08-18T18:22:12.633Z,99760.69
2022-08-18T18:25:34.309Z,99764.37
2022-08-18T18:28:37.598Z,99760.88
2022-08-18T18:32:01.456Z,99778.47
2022-08-18T18:35:27.466Z,99779.69
2022-08-18T18:38:36.276Z,99781.41
2022-08-18T18:41:40.523Z,99778.31
2022-08-18T18:44:58.445Z,99785.00
2022-08-18T18:48:48.058Z,99791.22
2022-08-18T18:51:50.679Z,99792.56
2022-08-18T18:55:01.654Z,99787.94
2022-08-18T18:58:22.937Z,99789.28
2022-08-18T19:01:41.947Z,99781.25
2022-08-18T19:04:51.341Z,99791.56
2022-08-18T19:08:19.942Z,99788.37
2022-08-18T19:11:53.658Z,99787.37
2022-08-18T19:15:04.927Z,99783.69
2022-08-18T19:18:30.368Z,99787.87
2022-08-18T19:22:04.307Z,99792.97
2022-08-18T19:25:14.584Z,99792.94
2022-08-18T19:28:36.885Z,99788.94
2022-08-18T19:32:15.788Z,99787.75
2022-08-18T19:35:24.479Z,99785.41
2022-08-18T19:38:56.003Z,99786.19
2022-08-18T19:42:11.648Z,99792.12
2022-08-18T19:45:26.272Z,99778.59
2022-08-18T19:48:39.308Z,99786.63
2022-08-18T19:51:44.455Z,99786.50
2022-08-18T19:55:27.342Z,99787.06
2022-08-18T19:59:21.447Z,99790.50
2022-08-18T20:02:44.181Z,99780.16
2022-08-18T20:05:55.703Z,99790.25
2022-08-18T20:09:19.751Z,99793.50
2022-08-18T20:12:31.181Z,99793.97
2022-08-18T20:15:33.500Z,99792.81
2022-08-18T20:18:39.536Z,99793.69
2022-08-18T20:21:47.786Z,99796.91
2022-08-18T20:25:04.519Z,99790.94
2022-08-18T20:28:09.582Z,99789.97
2022-08-18T20:31:15.980Z,99789.63
2022-08-18T20:34:22.440Z,99786.56
2022-08-18T20:37:25.666Z,99776.72
2022-08-18T20:40:50.881Z,99777.78
2022-08-18T20:44:14.983Z,99779.50
2022-08-18T20:47:38.079Z,99786.03
2022-08-18T20:51:16.229Z,99790.34
2022-08-18T20:54:38.614Z,99792.50
2022-08-18T20:57:55.735Z,99810.84
2022-08-18T21:00:58.700Z,99799.66
2022-08-18T21:04:01.946Z,99810.09
2022-08-18T21:07:12.838Z,99820.41
2022-08-18T21:10:22.246Z,99823.97
2022-08-18T21:13:29.235Z,99822.56
2022-08-18T21:16:43.273Z,99834.63
2022-08-18T21:19:46.024Z,99845.38
2022-08-18T21:22:49.433Z,99842.00
2022-08-18T21:25:55.661Z,99857.69
2022-08-18T21:29:06.602Z,99852.72
2022-08-18T21:32:18.540Z,99863.31
2022-08-18T21:35:33.189Z,99860.00
2022-08-18T21:38:36.379Z,99877.28
2022-08-18T21:41:42.385Z,99875.28
2022-08-18T21:44:46.532Z,99874.09
2022-08-18T21:48:10.871Z,99884.41
2022-08-18T21:51:22.987Z,99889.00
2022-08-18T21:54:31.025Z,99886.22
2022-08-18T21:58:14.321Z,99895.81
2022-08-18T22:01:20.550Z,99891.81
2022-08-18T22:04:37.608Z,99895.94
2022-08-18T22:07:47.930Z,99906.25
2022-08-18T22:11:41.777Z,99911.06
2022-08-18T22:14:54.842Z,99911.53
2022-08-18T22:17:59.978Z,99922.72
2022-08-18T22:21:03.599Z,99927.44
2022-08-18T22:24:19.477Z,99926.00
2022-08-18T22:27:24.039Z,99928.47
2022-08-18T22:30:26.507Z,99925.50
2022-08-18T22:33:28.693Z,99932.69
2022-08-18T22:36:35.842Z,99942.00
2022-08-18T22:39:43.642Z,99948.50
2022-08-18T22:42:46.167Z,99942.91
2022-08-18T22:45:48.313Z,99946.06
2022-08-18T22:48:51.459Z,99945.00
2022-08-18T22:51:55.179Z,99950.28
2022-08-18T22:54:59.309Z,99941.97
2022-08-18T22:58:04.970Z,99940.19
2022-08-18T23:01:10.732Z,99941.75
2022-08-18T23:04:15.537Z,99939.50
2022-08-18T23:07:22.590Z,99940.66
2022-08-18T23:10:24.801Z,99947.44
2022-08-18T23:13:27.253Z,99941.63
2022-08-18T23:16:31.417Z,99942.63
2022-08-18T23:19:34.718Z,99935.53
2022-08-18T23:22:36.922Z,99929.41
2022-08-18T23:25:39.528Z,99925.87
2022-08-18T23:28:52.437Z,99918.84
2022-08-18T23:31:55.891Z,99925.69
2022-08-18T23:34:58.010Z,99915.63
2022-08-18T23:38:04.142Z,99912.13
2022-08-18T23:41:11.106Z,99911.00
2022-08-18T23:44:13.801Z,99910.31
2022-08-18T23:47:19.789Z,99900.44
2022-08-18T23:50:25.123Z,99905.31
2022-08-18T23:53:31.102Z,99902.31
2022-08-18T23:56:35.027Z,99906.28
2022-08-18T23:59:37.154Z,99898.94
